Time;durP1;ratioP1;P1;durP2;ratioP2;P2;SDS_P1;SDS_P2;PMS_P1;PMS_P2;Temp;Humidity;BMP_temperature;BMP_pressure;BME280_temperature;BME280_humidity;BME280_pressure;Samples;Min_cycle;Max_cycle;Signal;HPM_P1;HPM_P2
2023/06/07 00:01:33;;;;;;;2.97;2.77;;;22.00;42.90;;;;;;5034403;28;20731;-93
2023/06/07 00:03:59;;;;;;;2.80;2.70;;;22.00;42.90;;;;;;5037770;28;20224;-89
2023/06/07 00:06:24;;;;;;;3.87;3.20;;;22.00;42.90;;;;;;5004611;28;20934;-89
2023/06/07 00:08:50;;;;;;;3.00;2.80;;;22.00;42.90;;;;;;5003861;28;20241;-89
2023/06/07 00:11:16;;;;;;;3.10;2.90;;;22.00;42.90;;;;;;5027010;28;20244;-90
2023/06/07 00:13:41;;;;;;;3.10;2.90;;;22.00;42.90;;;;;;5027677;28;20313;-91
2023/06/07 00:16:07;;;;;;;2.77;2.67;;;22.00;42.90;;;;;;5027053;28;20261;-91
2023/06/07 00:18:33;;;;;;;2.90;2.80;;;22.00;42.90;;;;;;5023706;28;20273;-89
2023/06/07 00:20:58;;;;;;;2.90;2.80;;;22.00;42.90;;;;;;5011351;28;20226;-91
2023/06/07 00:23:26;;;;;;;2.90;2.70;;;22.00;42.90;;;;;;5017982;28;20471;-89
2023/06/07 00:25:52;;;;;;;4.90;2.87;;;22.00;42.90;;;;;;5021031;28;20218;-89
2023/06/07 00:28:17;;;;;;;3.10;2.90;;;22.00;42.90;;;;;;5031777;28;20490;-90
2023/06/07 00:30:43;;;;;;;2.80;2.70;;;22.00;42.90;;;;;;5018510;28;20264;-89
2023/06/07 00:33:08;;;;;;;3.20;3.00;;;22.00;42.90;;;;;;5029387;28;20250;-92
2023/06/07 00:35:34;;;;;;;3.17;2.97;;;22.00;42.90;;;;;;5033033;28;20237;-89
2023/06/07 00:37:59;;;;;;;2.40;2.30;;;22.00;43.00;;;;;;5031414;28;20315;-89
2023/06/07 00:40:25;;;;;;;3.23;3.03;;;22.00;42.90;;;;;;5026983;28;20290;-89
2023/06/07 00:42:51;;;;;;;2.50;2.40;;;22.00;43.00;;;;;;5015351;28;20753;-90
2023/06/07 00:45:16;;;;;;;3.13;2.93;;;22.00;43.50;;;;;;5016725;28;20219;-91
2023/06/07 00:47:42;;;;;;;3.13;2.93;;;22.00;43.00;;;;;;5030203;28;20241;-90
2023/06/07 00:50:08;;;;;;;2.63;2.53;;;22.00;42.90;;;;;;5025393;28;20222;-90
2023/06/07 00:52:35;;;;;;;3.20;3.00;;;22.00;43.00;;;;;;5028270;28;20237;-92
2023/06/07 00:55:02;;;;;;;2.80;2.60;;;22.00;43.00;;;;;;5026112;28;20463;-90
2023/06/07 00:57:29;;;;;;;2.60;2.50;;;22.00;43.10;;;;;;5027274;28;20459;-89
2023/06/07 00:59:56;;;;;;;3.30;3.10;;;22.00;43.00;;;;;;5024458;28;20471;-92
2023/06/07 01:02:21;;;;;;;3.20;3.00;;;22.00;43.00;;;;;;5004116;28;20833;-91
2023/06/07 01:04:49;;;;;;;3.20;3.03;;;22.00;43.00;;;;;;5021109;28;22357;-92
2023/06/07 01:07:17;;;;;;;3.37;3.17;;;22.00;43.00;;;;;;5032970;28;20227;-90
2023/06/07 01:09:43;;;;;;;2.93;2.80;;;22.00;43.00;;;;;;5028467;28;20451;-90
2023/06/07 01:12:15;;;;;;;2.77;2.60;;;22.00;43.00;;;;;;5018273;28;20851;-91
2023/06/07 01:14:42;;;;;;;5.20;3.10;;;22.00;43.60;;;;;;5027778;28;20460;-91
2023/06/07 01:17:08;;;;;;;2.83;2.73;;;22.00;43.00;;;;;;5002322;28;20555;-89
2023/06/07 01:19:36;;;;;;;3.20;3.00;;;22.00;43.00;;;;;;5027366;28;20459;-91
2023/06/07 01:22:06;;;;;;;2.87;2.77;;;22.00;43.00;;;;;;5034271;28;20467;-91
2023/06/07 01:24:35;;;;;;;3.40;3.20;;;22.00;43.10;;;;;;5034383;28;20463;-91
2023/06/07 01:27:02;;;;;;;3.40;3.17;;;22.00;43.00;;;;;;5024187;28;20463;-90
2023/06/07 01:29:30;;;;;;;3.43;3.23;;;22.00;43.00;;;;;;4995305;28;20494;-94
2023/06/07 01:32:00;;;;;;;3.40;3.20;;;22.00;43.00;;;;;;5026547;28;20487;-92
2023/06/07 01:34:27;;;;;;;3.20;3.00;;;22.00;43.10;;;;;;5004118;28;21093;-91
2023/06/07 01:36:55;;;;;;;3.73;3.43;;;22.00;43.00;;;;;;5022800;28;20606;-90
2023/06/07 01:39:21;;;;;;;4.57;4.17;;;22.00;42.90;;;;;;5031681;28;20517;-90
2023/06/07 01:41:50;;;;;;;4.00;3.67;;;22.00;42.70;;;;;;5032755;28;20465;-93
2023/06/07 01:44:16;;;;;;;3.47;3.27;;;22.00;42.50;;;;;;5033212;28;20574;-89
2023/06/07 01:46:42;;;;;;;3.33;3.03;;;22.00;42.90;;;;;;5032629;28;20458;-89
2023/06/07 01:49:08;;;;;;;3.70;3.30;;;22.00;42.30;;;;;;5032595;28;20455;-92
2023/06/07 01:51:33;;;;;;;3.47;3.27;;;22.10;42.50;;;;;;5015892;28;20471;-90
2023/06/07 01:54:01;;;;;;;3.10;2.90;;;22.10;42.50;;;;;;5028139;28;21088;-89
2023/06/07 01:57:14;;;;;;;3.97;3.20;;;22.10;42.40;;;;;;5016335;28;20218;-89
2023/06/07 02:00:02;;;;;;;3.80;3.50;;;22.10;42.20;;;;;;5035110;28;20450;-90
2023/06/07 02:02:48;;;;;;;4.03;3.40;;;22.10;42.60;;;;;;5019239;28;20480;-92
2023/06/07 02:05:17;;;;;;;3.57;3.37;;;22.10;42.30;;;;;;5029934;28;20565;-90
2023/06/07 02:07:55;;;;;;;4.37;4.03;;;22.10;42.20;;;;;;5024931;28;20466;-89
2023/06/07 02:10:24;;;;;;;3.60;3.40;;;22.10;42.10;;;;;;5003132;28;20585;-89
2023/06/07 02:12:53;;;;;;;3.67;3.43;;;22.10;42.10;;;;;;5034324;28;20515;-90
2023/06/07 02:15:22;;;;;;;3.23;3.03;;;22.10;42.00;;;;;;5028838;28;21097;-90
2023/06/07 02:17:58;;;;;;;3.50;3.30;;;22.10;41.90;;;;;;5037220;28;20951;-92
2023/06/07 02:20:28;;;;;;;5.73;3.37;;;22.10;42.00;;;;;;5037265;28;21005;-91
2023/06/07 02:22:55;;;;;;;3.60;3.40;;;22.10;42.10;;;;;;5035644;28;20456;-90
2023/06/07 02:25:22;;;;;;;3.93;3.63;;;22.10;42.00;;;;;;5022377;28;20794;-90
2023/06/07 02:27:48;;;;;;;3.90;3.70;;;22.10;41.90;;;;;;5034191;28;20455;-91
2023/06/07 02:30:13;;;;;;;4.00;3.70;;;22.10;41.90;;;;;;5026782;28;20468;-90
2023/06/07 02:32:39;;;;;;;2.90;2.70;;;22.10;41.80;;;;;;5019587;28;20248;-89
2023/06/07 02:35:07;;;;;;;4.17;3.87;;;22.10;41.80;;;;;;5036852;28;20308;-89
2023/06/07 02:37:32;;;;;;;3.70;3.50;;;22.10;41.70;;;;;;5035004;28;20246;-89
2023/06/07 02:39:58;;;;;;;4.00;3.67;;;22.10;41.70;;;;;;5028584;28;20485;-90
2023/06/07 02:42:24;;;;;;;3.47;3.27;;;22.20;41.60;;;;;;5037413;28;20237;-90
2023/06/07 02:44:49;;;;;;;3.93;3.63;;;22.20;41.70;;;;;;5016455;28;20241;-90
2023/06/07 02:47:15;;;;;;;4.37;4.00;;;22.20;41.60;;;;;;5023178;28;20277;-90
2023/06/07 02:49:41;;;;;;;4.50;3.80;;;22.20;41.50;;;;;;5026553;28;20240;-91
2023/06/07 02:52:07;;;;;;;3.77;3.40;;;22.10;41.30;;;;;;5036166;28;20928;-89
2023/06/07 02:54:34;;;;;;;3.80;3.60;;;22.20;41.20;;;;;;5037263;28;20727;-90
2023/06/07 02:57:03;;;;;;;3.90;3.60;;;22.20;41.30;;;;;;5025983;28;20460;-89
2023/06/07 02:59:29;;;;;;;4.27;3.33;;;22.20;41.20;;;;;;5012535;28;20467;-90
2023/06/07 03:01:54;;;;;;;3.60;3.40;;;22.20;41.10;;;;;;5025801;28;20468;-90
2023/06/07 03:04:20;;;;;;;3.87;3.57;;;22.20;41.10;;;;;;5028181;28;20671;-90
2023/06/07 03:06:48;;;;;;;4.20;3.90;;;22.20;41.10;;;;;;5035545;28;20214;-89
2023/06/07 03:09:15;;;;;;;3.90;3.60;;;22.20;41.10;;;;;;5012240;28;20733;-89
2023/06/07 03:11:40;;;;;;;3.77;3.50;;;22.20;41.80;;;;;;5017282;28;20529;-89
2023/06/07 03:14:06;;;;;;;4.43;4.13;;;22.20;41.10;;;;;;5036990;28;20454;-89
2023/06/07 03:16:32;;;;;;;3.87;3.67;;;22.20;41.10;;;;;;5010750;28;20233;-89
2023/06/07 03:18:57;;;;;;;5.27;4.17;;;22.20;41.10;;;;;;5038339;28;20226;-89
2023/06/07 03:21:23;;;;;;;4.10;3.80;;;22.20;41.10;;;;;;5034388;28;20682;-92
2023/06/07 03:23:49;;;;;;;4.17;3.87;;;22.20;41.10;;;;;;5032330;28;20233;-90
2023/06/07 03:26:15;;;;;;;3.53;3.33;;;22.20;41.10;;;;;;5013908;28;20253;-89
2023/06/07 03:28:41;;;;;;;3.83;3.63;;;22.20;41.30;;;;;;5030943;28;21270;-89
2023/06/07 03:31:06;;;;;;;4.00;3.80;;;22.20;41.10;;;;;;5032992;28;20471;-89
2023/06/07 03:33:32;;;;;;;8.10;4.77;;;22.20;41.10;;;;;;5033482;28;20252;-90
2023/06/07 03:35:58;;;;;;;4.50;4.20;;;22.20;41.10;;;;;;5024842;28;21095;-89
2023/06/07 03:38:23;;;;;;;4.20;3.80;;;22.20;41.10;;;;;;5030414;28;20296;-90
2023/06/07 03:40:49;;;;;;;3.77;3.57;;;22.20;41.10;;;;;;5033208;28;20344;-91
2023/06/07 03:43:14;;;;;;;4.10;3.80;;;22.20;41.10;;;;;;5027336;28;20256;-89
2023/06/07 03:45:40;;;;;;;4.67;4.27;;;22.20;41.10;;;;;;5035212;28;20279;-89
2023/06/07 03:48:06;;;;;;;4.70;4.40;;;22.20;41.20;;;;;;5031992;28;20233;-89
2023/06/07 03:50:31;;;;;;;4.67;4.37;;;22.20;41.10;;;;;;5029398;28;20214;-90
2023/06/07 03:52:57;;;;;;;3.67;3.37;;;22.20;41.10;;;;;;5021711;28;21235;-89
2023/06/07 03:55:22;;;;;;;4.40;4.10;;;22.20;41.10;;;;;;5014695;28;20235;-89
2023/06/07 03:57:48;;;;;;;4.30;4.00;;;22.20;41.10;;;;;;5030822;28;20233;-91
2023/06/07 04:00:15;;;;;;;4.50;4.10;;;22.20;41.10;;;;;;5013852;28;20214;-93
2023/06/07 04:02:41;;;;;;;4.03;3.73;;;22.20;41.10;;;;;;5013920;28;20221;-91
2023/06/07 04:05:07;;;;;;;3.33;3.13;;;22.20;41.10;;;;;;5013706;28;21316;-89
2023/06/07 04:07:32;;;;;;;3.57;3.37;;;22.20;41.10;;;;;;5029552;28;20249;-88
2023/06/07 04:09:58;;;;;;;3.70;2.97;;;22.10;41.10;;;;;;5022649;28;20237;-89
2023/06/07 04:12:23;;;;;;;3.33;3.13;;;22.10;41.10;;;;;;5022541;28;20239;-88
2023/06/07 04:14:49;;;;;;;3.23;3.03;;;22.10;41.10;;;;;;5013152;28;20253;-88
2023/06/07 04:17:14;;;;;;;3.33;3.13;;;22.10;41.40;;;;;;5024713;28;20226;-88
2023/06/07 04:19:40;;;;;;;2.97;2.77;;;22.10;41.50;;;;;;5030073;28;20276;-89
2023/06/07 04:22:06;;;;;;;3.60;3.40;;;22.10;41.60;;;;;;5025073;28;20226;-89
2023/06/07 04:24:32;;;;;;;3.40;3.20;;;22.20;41.60;;;;;;5034557;28;20217;-91
2023/06/07 04:26:58;;;;;;;3.17;2.97;;;22.20;41.80;;;;;;5023708;28;20594;-89
2023/06/07 04:29:27;;;;;;;3.77;3.57;;;22.20;41.90;;;;;;5010937;28;20502;-89
2023/06/07 04:31:56;;;;;;;3.60;3.40;;;22.20;41.80;;;;;;5032081;28;20238;-89
2023/06/07 04:34:23;;;;;;;3.27;3.07;;;22.20;41.90;;;;;;5010533;28;20463;-88
2023/06/07 04:36:49;;;;;;;3.80;3.50;;;22.20;41.90;;;;;;5028134;28;20514;-90
2023/06/07 04:39:16;;;;;;;3.03;2.83;;;22.20;42.00;;;;;;5031828;28;20463;-88
2023/06/07 04:41:42;;;;;;;3.60;3.40;;;22.20;42.00;;;;;;5016831;28;20500;-88
2023/06/07 04:44:08;;;;;;;3.73;3.43;;;22.20;42.10;;;;;;5026534;28;20445;-89
2023/06/07 04:46:34;;;;;;;3.10;2.90;;;22.20;42.10;;;;;;5029612;28;20840;-88
2023/06/07 04:49:17;;;;;;;3.33;3.13;;;22.20;42.20;;;;;;4980045;28;20280;-92
2023/06/07 04:51:42;;;;;;;3.23;3.03;;;22.20;42.20;;;;;;5009430;28;20474;-92
2023/06/07 04:54:10;;;;;;;3.50;3.30;;;22.20;42.20;;;;;;5027095;28;20464;-94
2023/06/07 04:56:35;;;;;;;3.40;3.20;;;22.20;42.30;;;;;;5037019;28;20241;-93
2023/06/07 04:59:01;;;;;;;3.50;3.20;;;22.20;42.40;;;;;;5033532;28;20459;-94
2023/06/07 05:01:28;;;;;;;2.90;2.70;;;22.10;42.30;;;;;;5021240;28;20229;-93
2023/06/07 05:04:03;;;;;;;3.10;3.00;;;22.10;42.40;;;;;;5007883;28;20464;-94
2023/06/07 05:06:31;;;;;;;3.27;3.07;;;22.10;42.40;;;;;;5035729;28;20555;-93
2023/06/07 05:08:56;;;;;;;3.10;2.90;;;22.10;42.40;;;;;;5044374;28;20557;-91
2023/06/07 05:11:23;;;;;;;3.47;3.23;;;22.10;42.50;;;;;;5018033;28;21295;-95
2023/06/07 05:13:48;;;;;;;3.67;3.40;;;22.10;42.50;;;;;;4994216;28;20230;-95
2023/06/07 05:16:16;;;;;;;3.33;3.13;;;22.10;42.50;;;;;;5037236;28;20462;-95
2023/06/07 05:19:03;;;;;;;2.93;2.73;;;22.10;42.50;;;;;;4956461;28;20231;-93
2023/06/07 05:21:28;;;;;;;3.27;3.07;;;22.10;42.60;;;;;;4999059;28;20579;-93
2023/06/07 05:23:54;;;;;;;3.00;2.90;;;22.10;42.60;;;;;;5016579;28;20798;-95
2023/06/07 05:26:19;;;;;;;3.73;3.53;;;22.10;42.60;;;;;;5011724;28;20650;-92
2023/06/07 05:28:46;;;;;;;3.70;3.50;;;22.10;42.60;;;;;;5018672;28;20269;-92
2023/06/07 05:31:12;;;;;;;3.00;2.80;;;22.10;42.60;;;;;;5018465;28;20273;-96
2023/06/07 05:33:38;;;;;;;3.07;2.87;;;22.10;42.70;;;;;;5000472;28;20512;-95
2023/06/07 05:36:04;;;;;;;3.63;3.43;;;22.10;42.70;;;;;;5021751;28;21088;-89
2023/06/07 05:38:29;;;;;;;3.57;3.37;;;22.10;42.70;;;;;;5019712;28;20467;-93
2023/06/07 05:40:55;;;;;;;3.10;2.90;;;22.10;42.70;;;;;;5018375;28;20767;-89
2023/06/07 05:43:21;;;;;;;3.57;3.33;;;22.10;42.70;;;;;;5021450;28;20730;-89
2023/06/07 05:45:47;;;;;;;3.10;2.90;;;22.10;42.70;;;;;;5020001;28;20277;-89
2023/06/07 05:48:13;;;;;;;2.83;2.63;;;22.10;42.70;;;;;;5022060;28;20285;-90
2023/06/07 05:50:38;;;;;;;3.33;3.13;;;22.10;42.70;;;;;;5034655;28;20617;-88
2023/06/07 05:53:04;;;;;;;3.90;3.60;;;22.10;42.80;;;;;;5025658;28;20226;-88
2023/06/07 05:55:29;;;;;;;3.57;3.37;;;22.10;42.80;;;;;;5024545;28;20214;-88
2023/06/07 05:58:00;;;;;;;3.23;3.03;;;22.10;42.80;;;;;;5037721;28;20242;-88
2023/06/07 06:00:26;;;;;;;3.67;3.47;;;22.10;42.80;;;;;;5021764;28;21504;-89
2023/06/07 06:02:52;;;;;;;4.50;3.43;;;22.10;42.80;;;;;;5040985;28;20518;-90
2023/06/07 06:05:20;;;;;;;3.53;3.20;;;22.10;42.80;;;;;;5041308;28;20463;-89
2023/06/07 06:07:46;;;;;;;3.33;3.13;;;22.10;42.90;;;;;;5040997;28;20470;-89
2023/06/07 06:10:12;;;;;;;3.47;3.17;;;22.10;42.90;;;;;;5041618;28;20456;-89
2023/06/07 06:12:38;;;;;;;2.93;2.80;;;22.10;42.90;;;;;;5034999;28;20241;-90
2023/06/07 06:15:04;;;;;;;3.50;3.27;;;22.10;43.00;;;;;;5041068;28;20582;-91
2023/06/07 06:17:30;;;;;;;3.50;3.30;;;22.10;42.90;;;;;;5040826;28;20230;-89
2023/06/07 06:19:55;;;;;;;3.57;3.37;;;22.10;43.00;;;;;;5045728;28;20461;-89
2023/06/07 06:22:21;;;;;;;3.23;3.03;;;22.10;43.00;;;;;;5025354;28;20237;-89
2023/06/07 06:24:46;;;;;;;3.60;3.40;;;22.10;43.00;;;;;;5041660;28;20211;-89
2023/06/07 06:27:12;;;;;;;3.57;3.37;;;22.10;43.00;;;;;;5043210;28;20542;-89
2023/06/07 06:29:38;;;;;;;3.40;2.90;;;22.10;43.10;;;;;;5044066;28;20214;-89
2023/06/07 06:32:04;;;;;;;3.27;3.07;;;22.10;43.00;;;;;;5022515;28;20234;-92
2023/06/07 06:34:30;;;;;;;3.37;3.17;;;22.10;43.10;;;;;;5017487;28;20229;-95
2023/06/07 06:36:57;;;;;;;3.40;3.17;;;22.10;43.00;;;;;;5023893;28;21299;-88
2023/06/07 06:39:23;;;;;;;3.60;3.40;;;22.10;43.10;;;;;;5018252;28;20288;-93
2023/06/07 06:41:49;;;;;;;3.20;3.00;;;22.10;43.00;;;;;;5018012;28;20458;-89
2023/06/07 06:44:14;;;;;;;3.13;3.00;;;22.10;43.10;;;;;;5024337;28;20456;-93
2023/06/07 06:46:40;;;;;;;2.93;2.73;;;22.10;43.10;;;;;;5013138;28;20632;-89
2023/06/07 06:49:05;;;;;;;3.37;3.17;;;22.10;43.10;;;;;;5019415;28;20227;-89
2023/06/07 06:51:31;;;;;;;3.17;2.97;;;22.10;43.10;;;;;;5019392;28;20229;-88
2023/06/07 06:53:57;;;;;;;2.90;2.70;;;22.10;43.10;;;;;;5021740;28;20699;-88
2023/06/07 06:56:23;;;;;;;3.37;3.10;;;22.10;43.10;;;;;;4998594;28;20586;-90
2023/06/07 06:58:48;;;;;;;3.20;3.00;;;22.10;43.10;;;;;;5021181;28;20450;-90
2023/06/07 07:01:15;;;;;;;2.93;2.73;;;22.10;43.10;;;;;;5016613;28;20246;-90
2023/06/07 07:03:41;;;;;;;3.57;3.27;;;22.10;43.10;;;;;;4999280;28;20721;-89
2023/06/07 07:06:07;;;;;;;3.40;3.20;;;22.10;43.10;;;;;;5003257;28;20460;-89
2023/06/07 07:08:35;;;;;;;2.93;2.73;;;22.10;43.10;;;;;;5011907;28;20227;-91
2023/06/07 07:11:00;;;;;;;3.43;3.13;;;22.10;43.10;;;;;;5005657;28;20480;-90
2023/06/07 07:13:26;;;;;;;3.00;2.80;;;22.10;43.10;;;;;;5016534;28;20876;-88
2023/06/07 07:15:52;;;;;;;3.47;3.17;;;22.10;43.20;;;;;;5018396;28;20306;-90
2023/06/07 07:18:17;;;;;;;2.83;2.73;;;22.10;43.10;;;;;;5002935;28;20226;-91
2023/06/07 07:20:43;;;;;;;3.53;3.33;;;22.10;43.10;;;;;;4991049;28;20342;-89
2023/06/07 07:23:08;;;;;;;3.10;2.80;;;22.10;43.10;;;;;;5016308;28;20268;-92
2023/06/07 07:25:34;;;;;;;3.50;3.17;;;22.10;43.20;;;;;;4996475;28;20226;-90
2023/06/07 07:28:00;;;;;;;3.43;3.20;;;22.10;43.20;;;;;;4997139;28;20234;-89
2023/06/07 07:30:25;;;;;;;2.73;2.63;;;22.10;43.20;;;;;;5018721;28;20240;-88
2023/06/07 07:32:53;;;;;;;3.83;3.63;;;22.10;43.20;;;;;;5029996;28;20230;-90
2023/06/07 07:35:18;;;;;;;3.43;3.23;;;22.10;43.20;;;;;;5014066;28;20651;-89
2023/06/07 07:37:44;;;;;;;3.03;2.87;;;22.10;43.20;;;;;;5023322;28;20463;-89
2023/06/07 07:40:12;;;;;;;3.10;2.90;;;22.10;43.30;;;;;;5017983;28;20238;-89
2023/06/07 07:42:38;;;;;;;3.50;3.20;;;22.10;43.20;;;;;;5007789;28;20310;-89
2023/06/07 07:45:05;;;;;;;2.90;2.70;;;22.10;43.20;;;;;;5009028;28;21703;-89
2023/06/07 07:47:31;;;;;;;2.77;2.60;;;22.10;43.20;;;;;;5026386;28;20463;-89
2023/06/07 07:49:56;;;;;;;3.27;3.07;;;22.10;43.20;;;;;;5012283;28;20470;-90
2023/06/07 07:52:22;;;;;;;3.40;3.20;;;22.10;43.20;;;;;;5022741;28;20303;-92
2023/06/07 07:54:47;;;;;;;3.30;3.10;;;22.10;43.20;;;;;;5037387;28;20238;-90
2023/06/07 07:57:13;;;;;;;3.03;2.83;;;22.10;43.30;;;;;;5036882;28;20561;-89
2023/06/07 07:59:39;;;;;;;2.77;2.67;;;22.10;43.30;;;;;;5009134;28;20317;-89
2023/06/07 08:02:05;;;;;;;3.30;3.10;;;22.10;43.30;;;;;;5035408;28;20240;-89
2023/06/07 08:04:30;;;;;;;2.87;2.67;;;22.10;44.00;;;;;;5016095;28;20312;-90
2023/06/07 08:06:56;;;;;;;3.60;3.40;;;22.10;43.30;;;;;;5023639;28;20302;-89
2023/06/07 08:09:21;;;;;;;3.60;3.30;;;22.00;43.20;;;;;;5032393;28;20250;-92
2023/06/07 08:11:47;;;;;;;3.00;2.80;;;22.00;43.20;;;;;;5009120;28;20773;-91
2023/06/07 08:14:14;;;;;;;3.80;3.50;;;22.10;43.30;;;;;;5035120;28;20304;-89
2023/06/07 08:16:39;;;;;;;3.57;3.30;;;22.10;43.30;;;;;;5029857;28;20581;-90
2023/06/07 08:19:07;;;;;;;3.13;2.93;;;22.10;43.40;;;;;;5039851;28;21055;-89
2023/06/07 08:21:33;;;;;;;3.20;3.00;;;22.00;43.20;;;;;;5021838;28;20307;-89
2023/06/07 08:23:59;;;;;;;2.97;2.87;;;22.10;43.30;;;;;;5025617;28;21009;-88
2023/06/07 08:26:25;;;;;;;3.50;3.30;;;22.00;43.30;;;;;;5032410;28;20613;-92
2023/06/07 08:28:51;;;;;;;2.47;2.33;;;22.00;43.20;;;;;;5014092;28;20871;-88
2023/06/07 08:31:19;;;;;;;3.43;3.20;;;22.00;43.30;;;;;;5008992;28;20759;-89
2023/06/07 08:33:45;;;;;;;3.43;3.23;;;22.10;43.30;;;;;;5040634;28;20237;-89
2023/06/07 08:36:11;;;;;;;3.00;2.80;;;22.00;43.20;;;;;;5008051;28;20448;-89
2023/06/07 08:38:41;;;;;;;3.07;2.97;;;22.00;43.20;;;;;;5010471;28;20775;-90
2023/06/07 08:41:07;;;;;;;3.50;3.30;;;22.00;43.30;;;;;;5018893;28;20467;-93
2023/06/07 08:43:33;;;;;;;3.10;2.90;;;22.00;43.30;;;;;;5006354;28;20563;-89
2023/06/07 08:46:03;;;;;;;3.40;3.20;;;22.00;43.30;;;;;;5028248;28;20534;-89
2023/06/07 08:48:30;;;;;;;2.70;2.57;;;22.00;42.70;;;;;;5040713;28;20225;-93
2023/06/07 08:50:56;;;;;;;2.90;2.70;;;22.00;43.40;;;;;;5009513;28;20958;-89
2023/06/07 08:53:28;;;;;;;3.07;2.87;;;22.00;43.30;;;;;;5040560;28;20475;-89
2023/06/07 08:55:54;;;;;;;3.33;3.13;;;22.00;43.30;;;;;;5014901;28;20479;-89
2023/06/07 08:58:24;;;;;;;3.00;2.80;;;22.10;43.50;;;;;;5020303;28;20458;-91
2023/06/07 09:00:51;;;;;;;3.53;3.33;;;22.00;43.30;;;;;;5022000;28;20491;-88
2023/06/07 09:03:16;;;;;;;2.97;2.77;;;22.00;43.30;;;;;;5033601;28;20466;-93
2023/06/07 09:05:43;;;;;;;3.30;3.10;;;22.00;43.30;;;;;;5032338;28;20455;-89
2023/06/07 09:08:08;;;;;;;2.93;2.80;;;22.00;43.50;;;;;;5017408;28;20558;-89
2023/06/07 09:10:34;;;;;;;3.87;2.90;;;22.00;43.30;;;;;;5021009;28;20466;-91
2023/06/07 09:12:59;;;;;;;2.93;2.83;;;22.00;43.30;;;;;;5024381;28;20249;-89
2023/06/07 09:15:27;;;;;;;3.10;2.90;;;22.00;43.40;;;;;;5013057;28;20226;-92
2023/06/07 09:17:59;;;;;;;2.67;2.57;;;22.00;43.40;;;;;;5037947;28;20232;-89
2023/06/07 09:20:27;;;;;;;3.13;2.93;;;22.00;43.40;;;;;;5019585;28;20470;-89
2023/06/07 09:23:09;;;;;;;2.97;2.77;;;22.00;43.40;;;;;;5021794;28;20463;-89
2023/06/07 09:25:37;;;;;;;3.20;3.00;;;22.00;43.40;;;;;;5022685;28;20564;-91
2023/06/07 09:28:07;;;;;;;3.30;3.10;;;22.00;43.40;;;;;;5036868;28;20475;-88
2023/06/07 09:30:33;;;;;;;3.10;2.90;;;22.00;43.30;;;;;;5013016;28;20478;-90
2023/06/07 09:32:59;;;;;;;3.10;2.90;;;22.00;43.40;;;;;;5033647;28;21490;-89
2023/06/07 09:35:25;;;;;;;3.80;3.60;;;22.00;43.50;;;;;;5028138;28;20218;-88
2023/06/07 09:37:52;;;;;;;3.33;3.13;;;22.00;43.40;;;;;;5018352;28;20257;-89
2023/06/07 09:40:18;;;;;;;4.57;4.27;;;22.00;43.50;;;;;;5007628;28;21034;-89
2023/06/07 09:42:44;;;;;;;3.53;3.33;;;22.00;43.50;;;;;;5038075;28;20447;-89
2023/06/07 09:45:15;;;;;;;3.50;3.30;;;22.00;43.50;;;;;;5021731;28;20467;-90
2023/06/07 09:47:42;;;;;;;3.43;3.13;;;22.00;43.50;;;;;;5033179;28;20439;-92
2023/06/07 09:50:14;;;;;;;3.73;3.53;;;22.00;43.50;;;;;;5028398;28;20447;-89
2023/06/07 09:52:40;;;;;;;3.10;2.90;;;22.00;43.50;;;;;;5033547;28;20455;-93
2023/06/07 09:55:07;;;;;;;3.30;3.00;;;22.00;43.60;;;;;;5031541;28;20498;-90
2023/06/07 09:57:35;;;;;;;3.50;3.20;;;22.00;43.50;;;;;;5024667;28;20471;-89
2023/06/07 10:00:13;;;;;;;3.37;3.17;;;22.00;43.50;;;;;;5018824;28;20498;-89
2023/06/07 10:02:41;;;;;;;3.80;3.50;;;22.00;43.50;;;;;;5039871;28;20480;-90
2023/06/07 10:05:07;;;;;;;3.73;3.43;;;22.00;43.50;;;;;;5038495;28;21159;-89
2023/06/07 10:07:36;;;;;;;3.40;3.20;;;22.00;43.50;;;;;;5043183;28;20560;-89
2023/06/07 10:10:02;;;;;;;3.37;3.17;;;22.00;43.50;;;;;;5035710;28;20559;-91
2023/06/07 10:12:30;;;;;;;3.20;3.00;;;22.00;43.50;;;;;;5015732;28;20474;-89
2023/06/07 10:15:00;;;;;;;3.10;2.90;;;22.00;43.50;;;;;;5028663;28;20597;-90
2023/06/07 10:17:32;;;;;;;3.60;3.40;;;22.00;43.50;;;;;;5031776;28;20460;-89
2023/06/07 10:20:01;;;;;;;3.80;3.60;;;22.00;43.60;;;;;;5033405;28;20459;-89
2023/06/07 10:22:31;;;;;;;3.13;3.03;;;22.00;43.70;;;;;;5033646;28;20462;-89
2023/06/07 10:25:16;;;;;;;3.03;2.83;;;22.00;43.50;;;;;;5019937;28;20459;-89
2023/06/07 10:28:01;;;;;;;3.63;3.43;;;22.00;43.60;;;;;;5022014;28;20493;-90
2023/06/07 10:30:30;;;;;;;3.00;2.80;;;22.00;43.60;;;;;;5031198;28;21179;-90
2023/06/07 10:32:59;;;;;;;3.87;3.67;;;22.00;43.60;;;;;;5021690;28;20609;-90
2023/06/07 10:35:25;;;;;;;3.43;3.13;;;22.00;43.60;;;;;;5039820;28;20455;-89
2023/06/07 10:37:53;;;;;;;3.07;2.87;;;22.00;43.60;;;;;;4997379;28;20456;-90
2023/06/07 10:40:20;;;;;;;3.53;3.33;;;22.00;43.60;;;;;;5024799;28;20232;-89
2023/06/07 10:42:46;;;;;;;3.67;3.40;;;22.00;43.60;;;;;;5041960;28;21069;-89
2023/06/07 10:45:16;;;;;;;3.80;3.60;;;22.00;43.60;;;;;;5030618;28;20496;-94
2023/06/07 10:47:42;;;;;;;3.40;3.20;;;22.00;43.60;;;;;;5035193;28;20475;-88
2023/06/07 10:50:26;;;;;;;3.40;3.20;;;22.00;43.60;;;;;;5026160;28;20444;-91
2023/06/07 10:53:00;;;;;;;3.80;3.50;;;22.00;43.60;;;;;;5005562;28;20502;-89
2023/06/07 10:55:27;;;;;;;3.40;3.20;;;22.00;43.60;;;;;;5011327;28;20459;-90
2023/06/07 10:57:53;;;;;;;4.10;3.50;;;22.00;43.70;;;;;;5032640;28;20459;-90
2023/06/07 11:00:29;;;;;;;3.83;3.63;;;22.00;43.70;;;;;;5025033;28;20950;-89
2023/06/07 11:03:16;;;;;;;3.60;3.40;;;22.00;43.60;;;;;;5014000;28;20498;-90
2023/06/07 11:05:53;;;;;;;3.00;2.80;;;22.00;43.70;;;;;;5030761;28;20463;-90
2023/06/07 11:08:28;;;;;;;3.63;3.43;;;22.00;43.70;;;;;;5026258;28;20530;-89
2023/06/07 11:10:58;;;;;;;2.87;2.77;;;22.00;43.70;;;;;;5022922;28;20451;-90
2023/06/07 11:13:45;;;;;;;3.30;3.10;;;22.00;43.70;;;;;;5032983;28;20459;-90
2023/06/07 11:16:23;;;;;;;3.87;3.67;;;22.00;43.70;;;;;;5020456;28;20463;-89
2023/06/07 11:18:56;;;;;;;4.13;3.83;;;22.00;43.70;;;;;;5017910;28;20460;-89
2023/06/07 11:21:26;;;;;;;3.83;3.63;;;22.00;43.70;;;;;;5029309;28;20546;-88
2023/06/07 11:24:13;;;;;;;4.40;4.20;;;22.00;43.80;;;;;;5031753;28;20542;-90
2023/06/07 11:26:39;;;;;;;4.30;4.00;;;22.00;43.70;;;;;;5040483;28;20443;-88
2023/06/07 11:29:07;;;;;;;3.60;3.40;;;22.00;44.60;;;;;;5045374;28;20538;-89
2023/06/07 11:31:32;;;;;;;4.30;4.10;;;22.00;43.80;;;;;;5024904;28;20568;-89
2023/06/07 11:33:58;;;;;;;4.90;4.60;;;22.00;43.80;;;;;;5004633;28;21059;-89
2023/06/07 11:36:23;;;;;;;3.80;3.60;;;22.00;43.80;;;;;;5034568;28;20614;-89
2023/06/07 11:39:05;;;;;;;4.83;4.53;;;22.00;43.80;;;;;;5028335;28;20682;-89
2023/06/07 11:41:31;;;;;;;4.50;4.30;;;22.00;43.80;;;;;;5040544;28;20222;-90
2023/06/07 11:44:01;;;;;;;4.70;4.40;;;22.00;43.80;;;;;;5031835;28;20509;-91
2023/06/07 11:46:36;;;;;;;4.83;4.53;;;22.00;43.90;;;;;;5025114;28;20224;-89
2023/06/07 11:49:09;;;;;;;4.60;4.30;;;22.00;43.80;;;;;;5039261;28;20458;-93
2023/06/07 11:51:36;;;;;;;5.10;4.80;;;22.00;43.80;;;;;;4976673;28;20479;-90
2023/06/07 11:54:05;;;;;;;4.50;4.20;;;22.00;43.80;;;;;;5022454;28;20547;-89
2023/06/07 11:56:33;;;;;;;5.13;4.83;;;22.00;43.80;;;;;;5000092;28;20522;-89
2023/06/07 11:58:59;;;;;;;4.93;4.60;;;22.00;43.90;;;;;;5028247;28;20469;-89
2023/06/07 12:01:25;;;;;;;4.87;4.57;;;22.00;43.90;;;;;;5021067;28;20459;-89
2023/06/07 12:03:51;;;;;;;4.63;4.40;;;22.00;43.90;;;;;;5021641;28;20755;-90
2023/06/07 12:06:18;;;;;;;5.07;4.67;;;22.00;43.90;;;;;;4988000;28;20217;-89
2023/06/07 12:08:50;;;;;;;4.80;4.60;;;22.00;43.90;;;;;;5033137;28;20472;-88
2023/06/07 12:11:19;;;;;;;5.43;5.03;;;22.00;43.80;;;;;;5034007;28;20480;-88
2023/06/07 12:13:53;;;;;;;5.17;4.87;;;22.00;43.80;;;;;;5037717;28;20447;-89
2023/06/07 12:16:20;;;;;;;5.30;5.00;;;22.00;43.90;;;;;;5034048;28;20496;-91
2023/06/07 12:18:45;;;;;;;5.50;5.20;;;22.00;43.80;;;;;;5037878;28;20543;-88
2023/06/07 12:21:12;;;;;;;4.60;4.30;;;22.00;43.90;;;;;;5029116;28;21041;-88
2023/06/07 12:23:47;;;;;;;5.20;4.90;;;22.00;43.80;;;;;;5023507;28;20789;-89
2023/06/07 12:26:15;;;;;;;5.10;4.80;;;22.00;43.80;;;;;;5019141;28;20448;-89
2023/06/07 12:28:42;;;;;;;5.63;5.20;;;22.00;43.90;;;;;;5013968;28;21160;-89
2023/06/07 12:31:20;;;;;;;5.67;5.17;;;22.00;43.80;;;;;;5031855;28;20542;-90
2023/06/07 12:34:02;;;;;;;5.03;4.70;;;22.00;43.80;;;;;;5018182;28;21194;-89
2023/06/07 12:36:30;;;;;;;5.83;5.53;;;22.00;43.80;;;;;;5026482;28;21328;-90
2023/06/07 12:39:18;;;;;;;5.33;4.97;;;22.00;43.90;;;;;;5013478;28;20456;-89
2023/06/07 12:41:44;;;;;;;5.23;4.93;;;22.00;43.80;;;;;;5036663;28;20518;-89
2023/06/07 12:44:10;;;;;;;5.90;5.50;;;22.00;43.80;;;;;;5041252;28;20933;-89
2023/06/07 12:46:36;;;;;;;5.30;5.00;;;22.00;43.80;;;;;;5020763;28;20218;-88
2023/06/07 12:49:02;;;;;;;5.60;5.20;;;22.00;43.80;;;;;;5041793;28;20225;-89
2023/06/07 12:51:28;;;;;;;6.30;5.77;;;22.00;43.90;;;;;;5022675;28;20609;-89